createdAt,value
2023-04-21T00:01:55.141Z,100.00
2023-04-21T00:04:23.740Z,100.00
2023-04-21T00:06:53.078Z,100.00
2023-04-21T00:09:22.260Z,100.00
2023-04-21T00:11:49.924Z,100.00
2023-04-21T00:14:17.763Z,100.00
2023-04-21T00:16:45.710Z,100.00
2023-04-21T00:19:13.722Z,100.00
2023-04-21T00:21:41.674Z,100.00
2023-04-21T00:24:09.744Z,100.00
2023-04-21T00:26:38.926Z,100.00
2023-04-21T00:29:06.728Z,100.00
2023-04-21T00:31:34.498Z,100.00
2023-04-21T00:34:02.190Z,100.00
2023-04-21T00:36:29.830Z,100.00
2023-04-21T00:38:57.470Z,100.00
2023-04-21T00:41:25.107Z,100.00
2023-04-21T00:44:04.588Z,100.00
2023-04-21T00:46:32.777Z,100.00
2023-04-21T00:49:01.482Z,100.00
2023-04-21T00:51:29.963Z,100.00
2023-04-21T00:53:57.656Z,100.00
2023-04-21T00:56:27.030Z,100.00
2023-04-21T00:58:56.089Z,100.00
2023-04-21T01:01:25.070Z,100.00
2023-04-21T01:03:53.033Z,100.00
2023-04-21T01:06:21.099Z,100.00
2023-04-21T01:08:49.560Z,100.00
2023-04-21T01:11:17.283Z,100.00
2023-04-21T01:13:44.898Z,100.00
2023-04-21T01:16:17.497Z,100.00
2023-04-21T01:18:46.889Z,100.00
2023-04-21T01:21:14.704Z,100.00
2023-04-21T01:23:44.295Z,100.00
2023-04-21T01:26:12.528Z,100.00
2023-04-21T01:28:40.202Z,100.00
2023-04-21T01:31:07.838Z,100.00
2023-04-21T01:33:35.545Z,100.00
2023-04-21T01:36:03.356Z,100.00
2023-04-21T01:38:31.067Z,100.00
2023-04-21T01:41:01.465Z,100.00
2023-04-21T01:43:29.149Z,100.00
2023-04-21T01:45:57.845Z,100.00
2023-04-21T01:48:25.644Z,100.00
2023-04-21T01:50:53.296Z,100.00
2023-04-21T01:53:20.959Z,100.00
2023-04-21T01:55:48.633Z,100.00
2023-04-21T01:58:17.700Z,100.00
2023-04-21T02:00:45.752Z,100.00
2023-04-21T02:03:13.503Z,100.00
2023-04-21T02:05:41.359Z,100.00
2023-04-21T02:08:09.425Z,100.00
2023-04-21T02:10:37.126Z,100.00
2023-04-21T02:13:04.790Z,100.00
2023-04-21T02:15:33.834Z,100.00
2023-04-21T02:18:01.720Z,100.00
2023-04-21T02:20:29.541Z,100.00
2023-04-21T02:22:57.171Z,100.00
2023-04-21T02:25:25.542Z,100.00
2023-04-21T02:27:53.216Z,100.00
2023-04-21T02:30:21.107Z,100.00
2023-04-21T02:32:50.335Z,100.00
2023-04-21T02:35:18.072Z,100.00
2023-04-21T02:37:45.794Z,100.00
2023-04-21T02:40:13.895Z,100.00
2023-04-21T02:42:41.577Z,100.00
2023-04-21T02:45:12.113Z,100.00
2023-04-21T02:47:39.835Z,100.00
2023-04-21T02:50:09.712Z,100.00
2023-04-21T02:52:38.211Z,100.00
2023-04-21T02:55:06.559Z,100.00
2023-04-21T02:57:34.225Z,100.00
2023-04-21T03:00:01.924Z,100.00
2023-04-21T03:02:29.922Z,100.00
2023-04-21T03:04:58.007Z,100.00
2023-04-21T03:07:26.959Z,100.00
2023-04-21T03:09:54.660Z,100.00
2023-04-21T03:12:22.347Z,100.00
2023-04-21T03:14:50.126Z,100.00
2023-04-21T03:17:17.908Z,100.00
2023-04-21T03:19:45.572Z,100.00
2023-04-21T03:22:13.390Z,100.00
2023-04-21T03:24:42.443Z,100.00
2023-04-21T03:27:11.179Z,100.00
2023-04-21T03:29:38.961Z,100.00
2023-04-21T03:32:06.684Z,100.00
2023-04-21T03:34:34.435Z,100.00
2023-04-21T03:37:05.465Z,100.00
2023-04-21T03:39:33.105Z,100.00
2023-04-21T03:42:04.958Z,100.00
2023-04-21T03:44:32.612Z,100.00
2023-04-21T03:47:03.669Z,100.00
2023-04-21T03:49:31.643Z,100.00
2023-04-21T03:51:59.238Z,100.00
2023-04-21T03:54:27.112Z,100.00
2023-04-21T03:56:54.777Z,100.00
2023-04-21T03:59:23.817Z,100.00
2023-04-21T04:01:51.440Z,100.00
2023-04-21T04:04:19.260Z,100.00
2023-04-21T04:06:47.221Z,100.00
2023-04-21T04:09:14.828Z,100.00
2023-04-21T04:11:42.500Z,100.00
2023-04-21T04:14:10.721Z,100.00
2023-04-21T04:16:39.655Z,100.00
2023-04-21T04:19:07.294Z,100.00
2023-04-21T04:21:35.208Z,100.00
2023-04-21T04:24:05.700Z,100.00
2023-04-21T04:26:35.475Z,100.00
2023-04-21T04:29:03.953Z,100.00
2023-04-21T04:31:32.420Z,100.00
2023-04-21T04:34:01.846Z,100.00
2023-04-21T04:36:29.540Z,100.00
2023-04-21T04:38:58.390Z,100.00
2023-04-21T04:41:26.177Z,100.00
2023-04-21T04:43:54.323Z,100.00
2023-04-21T04:46:21.934Z,100.00
2023-04-21T04:48:49.583Z,100.00
2023-04-21T04:51:18.817Z,100.00
2023-04-21T04:53:46.408Z,100.00
2023-04-21T04:56:14.056Z,100.00
2023-04-21T04:58:41.786Z,100.00
2023-04-21T05:01:13.739Z,100.00
2023-04-21T05:03:41.621Z,100.00
2023-04-21T05:06:09.809Z,100.00
2023-04-21T05:08:40.092Z,100.00
2023-04-21T05:11:08.249Z,100.00
2023-04-21T05:13:38.225Z,100.00
2023-04-21T05:16:09.989Z,100.00
2023-04-21T05:18:37.976Z,100.00
2023-04-21T05:21:05.791Z,100.00
2023-04-21T05:23:33.586Z,100.00
2023-04-21T05:26:04.510Z,100.00
2023-04-21T05:28:32.754Z,100.00
2023-04-21T05:31:00.381Z,100.00
2023-04-21T05:33:27.999Z,100.00
2023-04-21T05:35:55.701Z,100.00
2023-04-21T05:38:23.473Z,100.00
2023-04-21T05:40:55.340Z,100.00
2023-04-21T05:43:24.387Z,100.00
2023-04-21T05:45:52.164Z,100.00
2023-04-21T05:48:19.984Z,100.00
2023-04-21T05:50:47.727Z,100.00
2023-04-21T05:53:15.448Z,100.00
2023-04-21T05:55:43.061Z,100.00
2023-04-21T05:58:10.808Z,100.00
2023-04-21T06:00:39.752Z,100.00
2023-04-21T06:03:07.630Z,100.00
2023-04-21T06:05:35.544Z,100.00
2023-04-21T06:08:03.239Z,100.00
2023-04-21T06:10:31.316Z,100.00
2023-04-21T06:12:58.909Z,100.00
2023-04-21T06:15:26.591Z,100.00
2023-04-21T06:17:55.946Z,100.00
2023-04-21T06:20:23.705Z,100.00
2023-04-21T06:22:51.531Z,100.00
2023-04-21T06:25:19.408Z,100.00
2023-04-21T06:27:47.928Z,100.00
2023-04-21T06:30:15.914Z,100.00
2023-04-21T06:32:45.783Z,100.00
2023-04-21T06:35:15.191Z,100.00
2023-04-21T06:37:43.042Z,100.00
2023-04-21T06:40:12.319Z,100.00
2023-04-21T06:42:39.985Z,100.00
2023-04-21T06:45:09.774Z,100.00
2023-04-21T06:47:37.493Z,100.00
2023-04-21T06:50:06.436Z,100.00
2023-04-21T06:52:35.720Z,100.00
2023-04-21T06:55:03.340Z,100.00
2023-04-21T06:57:30.960Z,100.00
2023-04-21T06:59:58.615Z,100.00
2023-04-21T07:02:26.306Z,100.00
2023-04-21T07:04:54.060Z,100.00
2023-04-21T07:07:21.768Z,100.00
2023-04-21T07:09:50.736Z,100.00
2023-04-21T07:12:18.405Z,100.00
2023-04-21T07:14:46.020Z,100.00
2023-04-21T07:17:13.801Z,100.00
2023-04-21T07:19:41.507Z,100.00
2023-04-21T07:22:09.142Z,100.00
2023-04-21T07:24:37.361Z,100.00
2023-04-21T07:27:06.453Z,100.00
2023-04-21T07:29:34.280Z,100.00
2023-04-21T07:32:01.948Z,100.00
2023-04-21T07:34:29.575Z,100.00
2023-04-21T07:36:57.376Z,100.00
2023-04-21T07:39:25.016Z,100.00
2023-04-21T07:41:53.853Z,100.00
2023-04-21T07:44:23.151Z,100.00
2023-04-21T07:46:50.865Z,100.00
2023-04-21T07:49:18.591Z,100.00
2023-04-21T07:51:46.314Z,100.00
2023-04-21T07:54:13.920Z,100.00
2023-04-21T07:56:41.559Z,100.00
2023-04-21T07:59:09.191Z,100.00
2023-04-21T08:01:38.227Z,100.00
2023-04-21T08:04:06.606Z,100.00
2023-04-21T08:06:34.566Z,99.84
2023-04-21T08:09:02.296Z,100.00
2023-04-21T08:11:29.944Z,100.00
2023-04-21T08:13:57.634Z,100.00
2023-04-21T08:16:25.478Z,99.89
2023-04-21T08:18:54.512Z,98.67
2023-04-21T08:21:22.144Z,100.00
2023-04-21T08:23:50.964Z,100.00
2023-04-21T08:26:18.901Z,100.00
2023-04-21T08:28:48.670Z,99.84
2023-04-21T08:31:16.490Z,99.08
2023-04-21T08:33:57.900Z,96.38
2023-04-21T08:36:30.702Z,94.32
2023-04-21T08:38:59.127Z,92.69
2023-04-21T08:41:27.632Z,93.51
2023-04-21T08:43:55.351Z,95.30
2023-04-21T08:46:24.274Z,93.17
2023-04-21T08:48:53.725Z,88.48
2023-04-21T08:51:24.646Z,92.61
2023-04-21T08:53:55.564Z,95.14
2023-04-21T08:56:25.723Z,92.26
2023-04-21T08:58:53.421Z,93.07
2023-04-21T09:01:21.203Z,92.58
2023-04-21T09:03:49.203Z,85.72
2023-04-21T09:06:17.235Z,90.33
2023-04-21T09:08:56.442Z,87.36
2023-04-21T09:11:24.381Z,84.32
2023-04-21T09:13:52.860Z,89.70
2023-04-21T09:16:22.750Z,86.10
2023-04-21T09:18:51.440Z,90.47
2023-04-21T09:21:20.702Z,87.86
2023-04-21T09:23:50.922Z,81.48
2023-04-21T09:26:22.715Z,84.26
2023-04-21T09:28:52.166Z,79.40
2023-04-21T09:31:21.643Z,88.50
2023-04-21T09:36:22.097Z,80.84
2023-04-21T09:41:34.064Z,81.38
2023-04-21T09:44:04.202Z,79.63
2023-04-21T09:46:35.216Z,78.72
2023-04-21T09:49:03.625Z,78.88
2023-04-21T09:54:28.349Z,83.53
2023-04-21T09:57:01.738Z,75.87
2023-04-21T09:59:31.630Z,76.75
2023-04-21T10:02:01.271Z,76.31
2023-04-21T10:04:32.354Z,73.39
2023-04-21T10:07:01.815Z,71.62
2023-04-21T10:09:36.114Z,73.45
2023-04-21T10:12:09.010Z,73.28
2023-04-21T10:14:37.271Z,72.23
2023-04-21T10:17:06.679Z,70.24
2023-04-21T10:19:39.548Z,72.34
2023-04-21T10:22:08.484Z,70.27
2023-04-21T10:24:39.172Z,73.59
2023-04-21T10:27:11.271Z,68.19
2023-04-21T10:29:52.465Z,69.05
2023-04-21T10:32:33.240Z,67.35
2023-04-21T10:35:01.659Z,67.86
2023-04-21T10:37:32.343Z,66.14
2023-04-21T10:40:00.216Z,62.04
2023-04-21T10:42:34.627Z,63.20
2023-04-21T10:45:08.462Z,61.40
2023-04-21T10:47:45.128Z,62.05
2023-04-21T10:50:15.449Z,63.16
2023-04-21T10:52:52.487Z,59.18
2023-04-21T10:55:20.702Z,58.09
2023-04-21T10:57:50.155Z,58.92
2023-04-21T11:00:20.590Z,59.73
2023-04-21T11:02:56.684Z,57.67
2023-04-21T11:05:34.603Z,56.99
2023-04-21T11:08:20.265Z,55.96
2023-04-21T11:10:51.830Z,57.69
2023-04-21T11:13:23.793Z,57.52
2023-04-21T11:15:59.280Z,57.23
2023-04-21T11:18:34.766Z,56.06
2023-04-21T11:21:11.448Z,57.76
2023-04-21T11:23:42.948Z,60.44
2023-04-21T11:26:10.598Z,61.70
2023-04-21T11:28:41.426Z,61.01
2023-04-21T11:31:09.160Z,61.28
2023-04-21T11:33:37.699Z,61.62
2023-04-21T11:36:06.969Z,60.84
2023-04-21T11:38:38.888Z,61.53
2023-04-21T11:41:07.098Z,62.07
2023-04-21T11:43:34.723Z,64.44
2023-04-21T11:46:19.090Z,65.09
2023-04-21T11:48:47.156Z,65.32
2023-04-21T11:51:16.369Z,62.22
2023-04-21T11:53:44.083Z,63.33
2023-04-21T11:56:12.714Z,64.30
2023-04-21T11:58:40.561Z,62.54
2023-04-21T12:01:09.041Z,64.01
2023-04-21T12:03:38.207Z,63.28
2023-04-21T12:06:07.436Z,64.23
2023-04-21T12:08:35.624Z,64.42
2023-04-21T12:11:03.909Z,63.80
2023-04-21T12:13:32.471Z,61.04
2023-04-21T12:16:03.869Z,61.28
2023-04-21T12:18:34.900Z,62.31
2023-04-21T12:21:05.425Z,61.82
2023-04-21T12:23:33.084Z,59.14
2023-04-21T12:26:01.326Z,60.77
2023-04-21T12:28:30.760Z,60.28
2023-04-21T12:30:58.442Z,59.37
2023-04-21T12:33:26.201Z,58.40
2023-04-21T12:35:53.909Z,59.34
2023-04-21T12:38:22.860Z,59.89
2023-04-21T12:40:50.472Z,60.42
2023-04-21T12:43:18.252Z,60.00
2023-04-21T12:45:46.000Z,60.79
2023-04-21T12:48:13.847Z,59.72
2023-04-21T12:50:41.537Z,60.80
2023-04-21T12:53:09.233Z,64.33
2023-04-21T12:55:38.476Z,61.50
2023-04-21T12:58:06.908Z,61.29
2023-04-21T13:00:36.024Z,62.97
2023-04-21T13:03:04.400Z,61.47
2023-04-21T13:05:32.540Z,60.67
2023-04-21T13:08:00.210Z,61.72
2023-04-21T13:10:27.823Z,62.27
2023-04-21T13:12:57.121Z,62.40
2023-04-21T13:15:25.020Z,62.50
2023-04-21T13:17:52.677Z,61.71
2023-04-21T13:20:20.552Z,58.67
2023-04-21T13:22:48.310Z,58.90
2023-04-21T13:25:16.407Z,58.13
2023-04-21T13:27:44.127Z,59.74
2023-04-21T13:30:15.305Z,59.02
2023-04-21T13:32:43.828Z,58.09
2023-04-21T13:35:11.785Z,58.03
2023-04-21T13:37:39.855Z,56.86
2023-04-21T13:40:10.928Z,56.50
2023-04-21T13:42:40.465Z,56.63
2023-04-21T13:45:09.152Z,56.37
2023-04-21T13:47:38.219Z,58.02
2023-04-21T13:50:07.007Z,55.05
2023-04-21T13:52:36.083Z,54.04
2023-04-21T13:55:05.126Z,53.55
2023-04-21T13:57:33.007Z,53.07
2023-04-21T14:00:00.766Z,51.34
2023-04-21T14:02:28.807Z,51.37
2023-04-21T14:04:58.224Z,54.60
2023-04-21T14:07:26.829Z,51.22
2023-04-21T14:09:54.551Z,50.70
2023-04-21T14:12:22.215Z,51.00
2023-04-21T14:14:49.864Z,50.54
2023-04-21T14:17:17.592Z,50.16
2023-04-21T14:19:45.176Z,50.56
2023-04-21T14:22:14.128Z,52.20
2023-04-21T14:24:41.804Z,50.52
2023-04-21T14:27:09.450Z,49.56
2023-04-21T14:29:37.508Z,49.71
2023-04-21T14:32:05.689Z,50.63
2023-04-21T14:34:33.416Z,49.85
2023-04-21T14:37:01.363Z,50.52
2023-04-21T14:39:30.436Z,50.41
2023-04-21T14:41:58.078Z,48.88
2023-04-21T14:44:25.778Z,48.18
2023-04-21T14:47:08.385Z,48.02
2023-04-21T14:49:38.142Z,47.65
2023-04-21T14:52:06.955Z,47.66
2023-04-21T14:54:36.041Z,48.02
2023-04-21T14:57:18.694Z,48.30
2023-04-21T14:59:48.452Z,47.75
2023-04-21T15:02:16.593Z,47.93
2023-04-21T15:04:44.503Z,47.35
2023-04-21T15:07:12.556Z,47.99
2023-04-21T15:09:45.528Z,49.00
2023-04-21T15:12:14.574Z,47.80
2023-04-21T15:14:42.429Z,49.89
2023-04-21T15:17:11.374Z,48.22
2023-04-21T15:19:39.210Z,47.81
2023-04-21T15:22:06.984Z,49.61
2023-04-21T15:24:34.688Z,48.26
2023-04-21T15:27:04.034Z,48.90
2023-04-21T15:29:31.672Z,48.03
2023-04-21T15:31:59.385Z,48.36
2023-04-21T15:34:26.994Z,49.51
2023-04-21T15:36:54.744Z,47.25
2023-04-21T15:39:22.404Z,46.43
2023-04-21T15:41:50.062Z,46.85
2023-04-21T15:44:19.068Z,46.96
2023-04-21T15:46:46.782Z,46.95
2023-04-21T15:49:14.540Z,47.88
2023-04-21T15:51:42.379Z,46.99
2023-04-21T15:54:10.501Z,47.60
2023-04-21T15:56:38.269Z,47.83
2023-04-21T15:59:06.564Z,47.43
2023-04-21T16:01:35.616Z,48.40
2023-04-21T16:04:03.510Z,48.25
2023-04-21T16:06:31.552Z,48.49
2023-04-21T16:08:59.340Z,47.23
2023-04-21T16:11:29.272Z,45.52
2023-04-21T16:13:57.137Z,47.38
2023-04-21T16:16:25.073Z,46.25
2023-04-21T16:18:54.125Z,45.24
2023-04-21T16:21:21.876Z,46.90
2023-04-21T16:23:49.763Z,45.73
2023-04-21T16:26:17.369Z,45.77
2023-04-21T16:28:45.522Z,47.36
2023-04-21T16:31:13.302Z,47.19
2023-04-21T16:33:41.096Z,47.84
2023-04-21T16:36:10.229Z,48.48
2023-04-21T16:38:37.902Z,47.82
2023-04-21T16:41:05.892Z,47.69
2023-04-21T16:43:33.619Z,48.42
2023-04-21T16:46:01.319Z,49.77
2023-04-21T16:48:29.085Z,50.07
2023-04-21T16:50:56.843Z,49.67
2023-04-21T16:53:26.562Z,51.75
2023-04-21T16:55:54.296Z,52.52
2023-04-21T16:58:24.207Z,51.12
2023-04-21T17:00:51.913Z,51.22
2023-04-21T17:03:19.841Z,52.07
2023-04-21T17:05:48.067Z,53.22
2023-04-21T17:08:15.787Z,53.02
2023-04-21T17:10:44.748Z,52.85
2023-04-21T17:13:12.453Z,52.74
2023-04-21T17:15:40.151Z,53.45
2023-04-21T17:18:07.889Z,53.03
2023-04-21T17:20:36.566Z,53.84
2023-04-21T17:23:04.168Z,54.06
2023-04-21T17:25:31.939Z,52.68
2023-04-21T17:28:01.060Z,55.96
2023-04-21T17:30:28.764Z,53.81
2023-04-21T17:33:08.386Z,56.24
2023-04-21T17:35:55.790Z,58.26
2023-04-21T17:38:29.614Z,56.79
2023-04-21T17:40:57.289Z,56.41
2023-04-21T17:43:26.322Z,58.38
2023-04-21T17:45:54.167Z,59.00
2023-04-21T17:48:22.012Z,57.62
2023-04-21T17:50:49.650Z,58.39
2023-04-21T17:53:17.352Z,62.17
2023-04-21T17:55:45.153Z,64.22
2023-04-21T17:58:12.969Z,65.07
2023-04-21T18:00:42.338Z,67.21
2023-04-21T18:03:10.208Z,68.18
2023-04-21T18:05:37.906Z,69.32
2023-04-21T18:08:05.716Z,73.25
2023-04-21T18:10:33.537Z,76.44
2023-04-21T18:13:01.180Z,76.67
2023-04-21T18:15:28.834Z,75.48
2023-04-21T18:17:57.918Z,78.40
2023-04-21T18:20:26.110Z,80.77
2023-04-21T18:22:54.351Z,82.45
2023-04-21T18:25:34.371Z,84.06
2023-04-21T18:28:10.922Z,84.30
2023-04-21T18:30:38.891Z,84.32
2023-04-21T18:33:08.043Z,85.65
2023-04-21T18:35:35.713Z,89.39
2023-04-21T18:38:03.452Z,92.91
2023-04-21T18:40:33.055Z,86.23
2023-04-21T18:43:01.337Z,85.64
2023-04-21T18:45:28.952Z,81.92
2023-04-21T18:47:56.658Z,77.84
2023-04-21T18:50:27.364Z,80.20
2023-04-21T18:52:55.169Z,79.05
2023-04-21T18:55:23.058Z,72.18
2023-04-21T18:57:50.750Z,70.29
2023-04-21T19:00:18.530Z,71.91
2023-04-21T19:02:48.616Z,70.55
2023-04-21T19:05:16.601Z,73.77
2023-04-21T19:07:46.010Z,72.64
2023-04-21T19:10:13.651Z,74.69
2023-04-21T19:12:41.590Z,68.24
2023-04-21T19:15:10.437Z,66.15
2023-04-21T19:17:38.257Z,67.77
2023-04-21T19:20:06.823Z,68.87
2023-04-21T19:22:36.081Z,69.00
2023-04-21T19:25:05.922Z,71.87
2023-04-21T19:27:33.913Z,76.37
2023-04-21T19:30:02.023Z,78.46
2023-04-21T19:32:30.177Z,80.73
2023-04-21T19:34:57.869Z,80.22
2023-04-21T19:37:27.046Z,83.72
2023-04-21T19:39:54.761Z,77.58
2023-04-21T19:42:24.166Z,77.72
2023-04-21T19:44:51.940Z,75.12
2023-04-21T19:47:19.687Z,76.19
2023-04-21T19:49:47.320Z,76.10
2023-04-21T19:52:15.141Z,72.37
2023-04-21T19:54:42.797Z,67.97
2023-04-21T19:57:10.407Z,69.18
2023-04-21T19:59:39.925Z,65.71
2023-04-21T20:02:08.332Z,68.97
2023-04-21T20:04:37.438Z,66.72
2023-04-21T20:07:05.193Z,65.93
2023-04-21T20:09:32.823Z,68.81
2023-04-21T20:12:01.455Z,70.40
2023-04-21T20:14:29.081Z,75.28
2023-04-21T20:16:58.342Z,76.84
2023-04-21T20:19:26.880Z,74.70
2023-04-21T20:21:54.508Z,76.22
2023-04-21T20:24:23.053Z,78.12
2023-04-21T20:26:50.666Z,81.37
2023-04-21T20:29:18.444Z,81.68
2023-04-21T20:31:46.490Z,84.53
2023-04-21T20:34:15.586Z,87.58
2023-04-21T20:36:43.445Z,87.98
2023-04-21T20:39:11.531Z,92.16
2023-04-21T20:41:39.216Z,90.87
2023-04-21T20:44:07.069Z,95.00
2023-04-21T20:46:34.778Z,95.22
2023-04-21T20:49:02.549Z,94.90
2023-04-21T20:51:32.626Z,97.49
2023-04-21T20:54:00.422Z,100.00
2023-04-21T20:56:28.151Z,97.38
2023-04-21T20:58:55.873Z,100.00
2023-04-21T21:01:24.130Z,100.00
2023-04-21T21:03:52.902Z,100.00
2023-04-21T21:06:21.558Z,100.00
2023-04-21T21:08:50.621Z,100.00
2023-04-21T21:11:18.368Z,100.00
2023-04-21T21:13:45.994Z,100.00
2023-04-21T21:16:14.462Z,100.00
2023-04-21T21:18:42.153Z,100.00
2023-04-21T21:21:10.374Z,100.00
2023-04-21T21:23:38.099Z,100.00
2023-04-21T21:26:07.576Z,100.00
2023-04-21T21:28:35.680Z,100.00
2023-04-21T21:31:03.621Z,100.00
2023-04-21T21:33:31.283Z,100.00
2023-04-21T21:35:58.950Z,100.00
2023-04-21T21:38:26.709Z,100.00
2023-04-21T21:40:54.338Z,100.00
2023-04-21T21:43:23.613Z,100.00
2023-04-21T21:45:51.391Z,100.00
2023-04-21T21:48:19.045Z,100.00
2023-04-21T21:50:46.723Z,100.00
2023-04-21T21:53:14.397Z,100.00
2023-04-21T21:55:42.109Z,100.00
2023-04-21T21:58:09.846Z,100.00
2023-04-21T22:00:39.622Z,100.00
2023-04-21T22:03:07.665Z,99.37
2023-04-21T22:05:35.920Z,100.00
2023-04-21T22:08:04.137Z,100.00
2023-04-21T22:10:31.798Z,98.65
2023-04-21T22:12:59.459Z,97.67
2023-04-21T22:15:27.075Z,96.41
2023-04-21T22:17:56.180Z,94.48
2023-04-21T22:20:24.982Z,93.58
2023-04-21T22:22:52.579Z,94.05
2023-04-21T22:25:26.658Z,93.18
2023-04-21T22:27:54.394Z,92.29
2023-04-21T22:30:22.124Z,93.90
2023-04-21T22:32:49.928Z,94.90
2023-04-21T22:35:19.086Z,92.24
2023-04-21T22:37:46.741Z,91.44
2023-04-21T22:40:14.584Z,92.50
2023-04-21T22:42:42.797Z,90.95
2023-04-21T22:45:11.260Z,91.31
2023-04-21T22:47:38.936Z,90.72
2023-04-21T22:50:09.100Z,93.38
2023-04-21T22:52:38.347Z,93.03
2023-04-21T22:55:06.651Z,97.32
2023-04-21T22:57:37.162Z,100.00
2023-04-21T23:00:06.016Z,100.00
2023-04-21T23:02:33.927Z,100.00
2023-04-21T23:05:01.763Z,100.00
2023-04-21T23:07:29.453Z,100.00
2023-04-21T23:09:58.395Z,100.00
2023-04-21T23:12:26.085Z,100.00
2023-04-21T23:14:53.802Z,100.00
2023-04-21T23:17:21.931Z,100.00
2023-04-21T23:19:49.548Z,96.94
2023-04-21T23:22:17.233Z,95.71
2023-04-21T23:24:44.890Z,93.23
2023-04-21T23:27:13.945Z,93.25
2023-04-21T23:29:41.635Z,94.66
2023-04-21T23:32:09.505Z,94.69
2023-04-21T23:34:37.220Z,95.70
2023-04-21T23:37:04.832Z,97.19
2023-04-21T23:39:32.875Z,96.26
2023-04-21T23:42:02.322Z,97.07
2023-04-21T23:44:31.300Z,98.91
2023-04-21T23:46:58.933Z,99.74
2023-04-21T23:49:26.590Z,100.00
2023-04-21T23:51:54.208Z,99.39
2023-04-21T23:54:21.879Z,100.00
2023-04-21T23:56:49.506Z,100.00
2023-04-21T23:59:17.583Z,100.00
